createdAt,value
2023-02-07T00:01:26.118Z,65.06
2023-02-07T00:03:55.121Z,64.91
2023-02-07T00:06:29.133Z,65.23
2023-02-07T00:08:55.959Z,65.14
2023-02-07T00:11:23.956Z,65.29
2023-02-07T00:13:54.793Z,65.27
2023-02-07T00:16:22.389Z,65.96
2023-02-07T00:18:50.069Z,65.64
2023-02-07T00:21:20.943Z,65.74
2023-02-07T00:23:48.181Z,65.81
2023-02-07T00:26:17.294Z,65.98
2023-02-07T00:28:44.482Z,66.26
2023-02-07T00:31:15.648Z,66.31
2023-02-07T00:33:43.707Z,66.27
2023-02-07T00:36:15.834Z,66.10
2023-02-07T00:38:44.110Z,66.07
2023-02-07T00:41:15.159Z,66.04
2023-02-07T00:43:42.915Z,66.25
2023-02-07T00:46:10.749Z,66.27
2023-02-07T00:48:40.085Z,66.33
2023-02-07T00:51:07.844Z,66.56
2023-02-07T00:53:35.228Z,66.24
2023-02-07T00:56:02.243Z,66.66
2023-02-07T00:58:29.080Z,66.77
2023-02-07T01:00:55.982Z,66.55
2023-02-07T01:03:22.871Z,66.88
2023-02-07T01:05:49.847Z,67.25
2023-02-07T01:08:16.995Z,66.96
2023-02-07T01:10:45.972Z,67.32
2023-02-07T01:13:14.911Z,66.87
2023-02-07T01:15:45.366Z,67.08
2023-02-07T01:18:13.203Z,67.06
2023-02-07T01:20:40.903Z,66.90
2023-02-07T01:23:08.193Z,66.78
2023-02-07T01:25:35.129Z,66.62
2023-02-07T01:28:02.141Z,66.96
2023-02-07T01:30:29.131Z,66.63
2023-02-07T01:32:56.232Z,66.49
2023-02-07T01:35:23.372Z,66.33
2023-02-07T01:37:50.623Z,66.67
2023-02-07T01:40:17.703Z,66.79
2023-02-07T01:42:44.621Z,66.38
2023-02-07T01:45:35.040Z,66.08
2023-02-07T01:48:08.045Z,65.92
2023-02-07T01:50:36.449Z,66.27
2023-02-07T01:53:06.596Z,66.37
2023-02-07T01:55:37.897Z,66.33
2023-02-07T01:58:06.463Z,66.31
2023-02-07T02:00:34.516Z,66.17
2023-02-07T02:03:01.676Z,65.99
2023-02-07T02:05:31.288Z,66.10
2023-02-07T02:07:58.429Z,66.12
2023-02-07T02:10:51.285Z,65.90
2023-02-07T02:13:23.613Z,66.06
2023-02-07T02:16:24.659Z,66.23
2023-02-07T02:19:15.930Z,65.80
2023-02-07T02:22:27.079Z,65.69
2023-02-07T02:25:14.735Z,65.82
2023-02-07T02:28:17.388Z,65.73
2023-02-07T02:31:02.456Z,65.62
2023-02-07T02:34:10.358Z,65.48
2023-02-07T02:37:09.106Z,65.23
2023-02-07T02:40:10.566Z,65.78
2023-02-07T02:42:47.997Z,65.72
2023-02-07T02:45:28.979Z,65.52
2023-02-07T02:47:57.264Z,65.29
2023-02-07T02:50:28.504Z,65.15
2023-02-07T02:52:56.063Z,65.34
2023-02-07T02:56:05.743Z,65.72
2023-02-07T02:59:21.543Z,65.15
2023-02-07T03:02:04.109Z,64.89
2023-02-07T03:04:55.763Z,65.02
2023-02-07T03:07:34.447Z,64.75
2023-02-07T03:10:24.050Z,64.52
2023-02-07T03:13:17.255Z,64.11
2023-02-07T03:16:14.438Z,64.12
2023-02-07T03:19:06.741Z,63.91
2023-02-07T03:21:47.911Z,64.02
2023-02-07T03:24:27.758Z,63.70
2023-02-07T03:26:59.284Z,64.16
2023-02-07T03:29:28.923Z,64.16
2023-02-07T03:32:00.510Z,63.93
2023-02-07T03:34:51.243Z,63.80
2023-02-07T03:37:50.799Z,63.65
2023-02-07T03:40:18.796Z,64.02
2023-02-07T03:43:05.085Z,63.92
2023-02-07T03:45:32.069Z,63.99
2023-02-07T03:47:58.894Z,64.52
2023-02-07T03:50:25.743Z,64.15
2023-02-07T03:52:52.582Z,64.11
2023-02-07T03:55:19.433Z,64.24
2023-02-07T03:57:46.272Z,64.11
2023-02-07T04:00:14.109Z,63.79
2023-02-07T04:02:41.579Z,64.29
2023-02-07T04:05:09.220Z,63.76
2023-02-07T04:07:36.090Z,62.98
2023-02-07T04:10:04.631Z,63.31
2023-02-07T04:12:34.541Z,63.38
2023-02-07T04:15:02.561Z,63.23
2023-02-07T04:17:31.411Z,62.95
2023-02-07T04:19:58.875Z,62.58
2023-02-07T04:22:25.697Z,62.89
2023-02-07T04:24:52.530Z,62.83
2023-02-07T04:27:19.480Z,62.66
2023-02-07T04:29:46.322Z,62.86
2023-02-07T04:32:13.171Z,63.37
2023-02-07T04:34:39.947Z,63.19
2023-02-07T04:37:06.835Z,63.35
2023-02-07T04:39:33.687Z,63.17
2023-02-07T04:42:00.836Z,63.21
2023-02-07T04:44:28.015Z,63.79
2023-02-07T04:46:54.875Z,63.47
2023-02-07T04:49:21.805Z,63.52
2023-02-07T04:51:48.622Z,63.37
2023-02-07T04:54:15.499Z,63.00
2023-02-07T04:56:42.323Z,63.03
2023-02-07T04:59:09.176Z,63.48
2023-02-07T05:01:36.090Z,63.41
2023-02-07T05:04:02.913Z,63.93
2023-02-07T05:06:30.982Z,63.57
2023-02-07T05:08:57.813Z,63.56
2023-02-07T05:11:24.638Z,63.58
2023-02-07T05:13:51.502Z,63.32
2023-02-07T05:16:18.421Z,63.80
2023-02-07T05:18:45.341Z,63.85
2023-02-07T05:21:12.254Z,63.86
2023-02-07T05:23:39.757Z,63.40
2023-02-07T05:26:06.678Z,63.55
2023-02-07T05:28:34.036Z,63.74
2023-02-07T05:31:01.085Z,63.99
2023-02-07T05:33:28.111Z,63.79
2023-02-07T05:35:54.994Z,63.61
2023-02-07T05:38:21.857Z,63.51
2023-02-07T05:40:49.689Z,64.23
2023-02-07T05:43:16.867Z,64.06
2023-02-07T05:45:45.715Z,64.59
2023-02-07T05:48:13.484Z,64.44
2023-02-07T05:50:40.404Z,64.75
2023-02-07T05:53:08.542Z,64.73
2023-02-07T05:55:35.929Z,64.52
2023-02-07T05:58:03.100Z,64.71
2023-02-07T06:00:29.987Z,64.99
2023-02-07T06:02:56.844Z,64.87
2023-02-07T06:05:24.807Z,65.10
2023-02-07T06:07:52.117Z,65.43
2023-02-07T06:10:19.452Z,65.27
2023-02-07T06:12:46.756Z,65.19
2023-02-07T06:15:13.695Z,65.38
2023-02-07T06:17:40.533Z,65.45
2023-02-07T06:20:08.181Z,65.12
2023-02-07T06:22:35.723Z,65.63
2023-02-07T06:25:02.782Z,65.59
2023-02-07T06:27:29.701Z,65.35
2023-02-07T06:29:56.513Z,65.46
2023-02-07T06:32:23.336Z,65.45
2023-02-07T06:34:50.229Z,65.72
2023-02-07T06:37:17.139Z,65.91
2023-02-07T06:39:43.989Z,65.83
2023-02-07T06:42:10.777Z,65.74
2023-02-07T06:44:37.637Z,66.07
2023-02-07T06:47:04.481Z,66.29
2023-02-07T06:49:31.370Z,65.96
2023-02-07T06:51:58.217Z,65.85
2023-02-07T06:54:25.100Z,65.67
2023-02-07T06:56:52.030Z,65.29
2023-02-07T06:59:18.902Z,65.36
2023-02-07T07:01:47.738Z,64.62
2023-02-07T07:04:16.146Z,63.95
2023-02-07T07:06:43.017Z,63.16
2023-02-07T07:09:09.847Z,62.87
2023-02-07T07:11:42.823Z,62.53
2023-02-07T07:14:11.559Z,61.97
2023-02-07T07:16:39.140Z,60.97
2023-02-07T07:19:06.422Z,61.10
2023-02-07T07:21:33.300Z,60.80
2023-02-07T07:24:00.136Z,60.05
2023-02-07T07:26:31.675Z,59.94
2023-02-07T07:29:08.231Z,59.92
2023-02-07T07:31:35.111Z,58.76
2023-02-07T07:34:01.917Z,58.11
2023-02-07T07:36:28.842Z,57.20
2023-02-07T07:38:55.627Z,56.95
2023-02-07T07:41:23.644Z,56.23
2023-02-07T07:43:50.469Z,54.81
2023-02-07T07:46:17.418Z,53.95
2023-02-07T07:48:44.250Z,54.44
2023-02-07T07:51:11.108Z,53.11
2023-02-07T07:53:38.062Z,52.71
2023-02-07T07:56:05.385Z,52.05
2023-02-07T07:58:32.264Z,51.56
2023-02-07T08:00:59.189Z,51.55
2023-02-07T08:03:26.108Z,50.59
2023-02-07T08:05:53.263Z,50.04
2023-02-07T08:08:20.106Z,49.56
2023-02-07T08:10:47.941Z,50.43
2023-02-07T08:13:16.734Z,49.82
2023-02-07T08:15:43.994Z,48.87
2023-02-07T08:18:10.891Z,48.45
2023-02-07T08:20:38.304Z,47.85
2023-02-07T08:23:05.445Z,46.09
2023-02-07T08:25:32.306Z,45.92
2023-02-07T08:27:59.165Z,46.42
2023-02-07T08:30:26.661Z,45.92
2023-02-07T08:32:55.362Z,46.52
2023-02-07T08:35:22.354Z,46.85
2023-02-07T08:37:50.207Z,46.34
2023-02-07T08:40:17.451Z,46.85
2023-02-07T08:42:44.588Z,47.24
2023-02-07T08:45:12.132Z,45.00
2023-02-07T08:47:39.099Z,44.93
2023-02-07T08:50:07.571Z,43.01
2023-02-07T08:52:34.610Z,42.63
2023-02-07T08:55:01.399Z,41.94
2023-02-07T08:57:28.259Z,41.41
2023-02-07T08:59:55.136Z,40.82
2023-02-07T09:02:22.096Z,41.35
2023-02-07T09:04:49.101Z,41.15
2023-02-07T09:07:16.014Z,41.90
2023-02-07T09:09:42.957Z,41.48
2023-02-07T09:12:10.715Z,43.10
2023-02-07T09:14:39.333Z,42.22
2023-02-07T09:17:07.769Z,41.70
2023-02-07T09:19:36.453Z,41.57
2023-02-07T09:22:04.968Z,41.09
2023-02-07T09:24:32.385Z,39.57
2023-02-07T09:26:59.337Z,40.60
2023-02-07T09:29:26.185Z,40.32
2023-02-07T09:31:53.358Z,38.37
2023-02-07T09:34:20.377Z,37.96
2023-02-07T09:36:47.357Z,36.63
2023-02-07T09:39:14.256Z,36.41
2023-02-07T09:42:05.737Z,35.50
2023-02-07T09:45:10.879Z,35.83
2023-02-07T09:47:41.882Z,35.75
2023-02-07T09:50:36.276Z,35.22
2023-02-07T09:53:17.566Z,36.27
2023-02-07T09:56:03.325Z,36.58
2023-02-07T09:59:14.434Z,36.80
2023-02-07T10:01:46.698Z,38.02
2023-02-07T10:04:26.708Z,38.76
2023-02-07T10:06:57.170Z,38.24
2023-02-07T10:09:40.045Z,37.57
2023-02-07T10:12:56.991Z,37.07
2023-02-07T10:16:16.230Z,37.44
2023-02-07T10:18:50.527Z,37.75
2023-02-07T10:21:48.859Z,38.43
2023-02-07T10:24:27.174Z,37.88
2023-02-07T10:27:16.619Z,37.20
2023-02-07T10:29:51.926Z,36.57
2023-02-07T10:32:25.755Z,36.03
2023-02-07T10:35:08.089Z,35.82
2023-02-07T10:37:38.768Z,35.96
2023-02-07T10:40:19.345Z,34.38
2023-02-07T10:42:54.866Z,34.04
2023-02-07T10:45:21.799Z,33.09
2023-02-07T10:47:48.707Z,31.08
2023-02-07T10:50:29.791Z,32.29
2023-02-07T10:52:59.250Z,32.06
2023-02-07T10:55:43.286Z,32.76
2023-02-07T10:58:24.518Z,33.19
2023-02-07T11:00:57.019Z,33.45
2023-02-07T11:03:25.424Z,33.10
2023-02-07T11:06:02.570Z,34.26
2023-02-07T11:08:35.280Z,33.11
2023-02-07T11:11:40.606Z,33.20
2023-02-07T11:14:08.281Z,33.47
2023-02-07T11:16:35.676Z,31.74
2023-02-07T11:19:07.648Z,32.00
2023-02-07T11:21:34.434Z,31.39
2023-02-07T11:24:07.147Z,32.87
2023-02-07T11:26:40.953Z,32.31
2023-02-07T11:29:16.044Z,32.45
2023-02-07T11:31:46.495Z,32.77
2023-02-07T11:34:41.477Z,32.34
2023-02-07T11:37:28.179Z,31.64
2023-02-07T11:40:21.088Z,30.57
2023-02-07T11:42:51.196Z,31.66
2023-02-07T11:45:22.448Z,31.91
2023-02-07T11:47:54.249Z,32.33
2023-02-07T11:50:29.796Z,31.86
2023-02-07T11:53:00.384Z,29.70
2023-02-07T11:55:41.565Z,29.35
2023-02-07T11:58:38.931Z,28.22
2023-02-07T12:01:07.874Z,26.63
2023-02-07T12:04:00.684Z,25.48
2023-02-07T12:06:45.969Z,25.33
2023-02-07T12:09:48.104Z,25.79
2023-02-07T12:12:31.118Z,24.89
2023-02-07T12:15:04.383Z,25.14
2023-02-07T12:17:57.744Z,25.89
2023-02-07T12:20:38.028Z,26.16
2023-02-07T12:23:41.433Z,25.28
2023-02-07T12:26:23.272Z,25.27
2023-02-07T12:29:14.913Z,24.97
2023-02-07T12:31:57.863Z,25.20
2023-02-07T12:35:04.925Z,25.62
2023-02-07T12:37:43.835Z,25.46
2023-02-07T12:40:32.106Z,25.28
2023-02-07T12:43:21.243Z,25.37
2023-02-07T12:45:59.599Z,25.52
2023-02-07T12:49:03.258Z,25.31
2023-02-07T12:52:01.644Z,24.16
2023-02-07T12:54:48.128Z,24.06
2023-02-07T12:57:46.182Z,23.20
2023-02-07T13:00:42.026Z,23.65
2023-02-07T13:03:23.735Z,23.66
2023-02-07T13:06:11.540Z,23.79
2023-02-07T13:09:11.191Z,23.62
2023-02-07T13:11:56.941Z,22.64
2023-02-07T13:14:39.301Z,23.48
2023-02-07T13:17:26.257Z,23.12
2023-02-07T13:19:59.814Z,22.44
2023-02-07T13:22:46.354Z,21.45
2023-02-07T13:25:29.226Z,21.16
2023-02-07T13:27:59.532Z,20.64
2023-02-07T13:30:29.708Z,19.91
2023-02-07T13:33:04.891Z,20.19
2023-02-07T13:35:34.843Z,20.49
2023-02-07T13:38:21.492Z,19.98
2023-02-07T13:41:06.111Z,20.38
2023-02-07T13:43:50.920Z,19.54
2023-02-07T13:47:02.556Z,18.15
2023-02-07T13:49:40.771Z,17.15
2023-02-07T13:52:35.644Z,17.46
2023-02-07T13:55:29.646Z,18.36
2023-02-07T13:58:35.555Z,17.89
2023-02-07T14:01:15.902Z,17.21
2023-02-07T14:04:07.147Z,16.85
2023-02-07T14:06:44.604Z,18.25
2023-02-07T14:09:24.294Z,18.05
2023-02-07T14:12:08.289Z,18.15
2023-02-07T14:14:39.579Z,17.91
2023-02-07T14:17:09.102Z,17.83
2023-02-07T14:19:43.084Z,17.62
2023-02-07T14:22:15.827Z,18.03
2023-02-07T14:25:18.053Z,18.01
2023-02-07T14:27:50.538Z,18.48
2023-02-07T14:30:32.671Z,18.48
2023-02-07T14:33:21.466Z,18.41
2023-02-07T14:36:19.677Z,18.70
2023-02-07T14:39:18.953Z,17.80
2023-02-07T14:41:48.626Z,18.19
2023-02-07T14:44:30.372Z,17.13
2023-02-07T14:47:00.099Z,16.41
2023-02-07T14:49:48.248Z,17.52
2023-02-07T14:52:29.101Z,17.04
2023-02-07T14:55:02.350Z,16.18
2023-02-07T14:57:55.818Z,16.29
2023-02-07T15:00:37.737Z,17.26
2023-02-07T15:03:14.906Z,17.73
2023-02-07T15:05:52.216Z,16.99
2023-02-07T15:08:22.934Z,17.05
2023-02-07T15:11:16.326Z,16.99
2023-02-07T15:13:48.723Z,17.61
2023-02-07T15:16:29.051Z,18.21
2023-02-07T15:19:01.115Z,17.47
2023-02-07T15:21:49.437Z,16.96
2023-02-07T15:24:17.754Z,17.87
2023-02-07T15:26:50.409Z,18.64
2023-02-07T15:29:25.551Z,19.76
2023-02-07T15:31:53.444Z,21.71
2023-02-07T15:34:31.712Z,23.44
2023-02-07T15:37:14.897Z,25.56
2023-02-07T15:39:41.933Z,28.04
2023-02-07T15:42:19.001Z,29.29
2023-02-07T15:44:53.467Z,29.71
2023-02-07T15:47:29.597Z,31.11
2023-02-07T15:50:24.909Z,31.34
2023-02-07T15:52:55.968Z,31.34
2023-02-07T15:55:46.287Z,31.68
2023-02-07T15:58:37.793Z,31.94
2023-02-07T16:01:13.881Z,32.82
2023-02-07T16:03:47.599Z,33.29
2023-02-07T16:06:28.581Z,34.01
2023-02-07T16:08:59.075Z,34.77
2023-02-07T16:11:25.850Z,34.88
2023-02-07T16:13:55.274Z,35.17
2023-02-07T16:16:27.492Z,35.59
2023-02-07T16:19:17.519Z,36.35
2023-02-07T16:21:46.869Z,36.48
2023-02-07T16:24:16.863Z,36.79
2023-02-07T16:26:46.535Z,37.86
2023-02-07T16:29:23.431Z,38.14
2023-02-07T16:31:51.699Z,38.01
2023-02-07T16:34:20.443Z,38.70
2023-02-07T16:36:54.348Z,39.38
2023-02-07T16:39:23.233Z,39.57
2023-02-07T16:41:55.435Z,39.15
2023-02-07T16:44:28.312Z,39.25
2023-02-07T16:46:55.203Z,39.46
2023-02-07T16:49:25.966Z,40.02
2023-02-07T16:51:54.434Z,40.12
2023-02-07T16:54:21.526Z,40.40
2023-02-07T16:56:53.969Z,40.44
2023-02-07T16:59:23.008Z,40.65
2023-02-07T17:01:53.043Z,40.82
2023-02-07T17:04:20.775Z,40.78
2023-02-07T17:06:48.211Z,41.17
2023-02-07T17:09:24.764Z,41.39
2023-02-07T17:11:53.489Z,41.68
2023-02-07T17:14:21.024Z,45.02
2023-02-07T17:16:48.456Z,45.17
2023-02-07T17:19:24.470Z,45.96
2023-02-07T17:21:52.476Z,47.09
2023-02-07T17:24:19.757Z,45.38
2023-02-07T17:26:51.244Z,44.96
2023-02-07T17:29:19.229Z,44.40
2023-02-07T17:31:47.223Z,44.45
2023-02-07T17:34:14.088Z,43.53
2023-02-07T17:36:48.202Z,43.18
2023-02-07T17:39:17.335Z,43.33
2023-02-07T17:41:44.698Z,42.77
2023-02-07T17:44:11.553Z,42.78
2023-02-07T17:46:38.402Z,41.83
2023-02-07T17:49:13.665Z,41.18
2023-02-07T17:51:42.082Z,41.89
2023-02-07T17:54:08.954Z,41.71
2023-02-07T17:56:37.274Z,41.20
2023-02-07T17:59:06.730Z,41.63
2023-02-07T18:01:33.928Z,41.36
2023-02-07T18:04:02.488Z,41.77
2023-02-07T18:06:30.321Z,41.57
2023-02-07T18:08:58.709Z,41.51
2023-02-07T18:11:27.279Z,41.31
2023-02-07T18:13:54.283Z,41.85
2023-02-07T18:16:24.950Z,41.47
2023-02-07T18:18:53.858Z,41.74
2023-02-07T18:21:21.115Z,41.72
2023-02-07T18:23:47.931Z,41.84
2023-02-07T18:26:16.576Z,41.92
2023-02-07T18:28:44.137Z,42.42
2023-02-07T18:31:15.226Z,43.12
2023-02-07T18:33:42.399Z,43.66
2023-02-07T18:36:09.988Z,43.95
2023-02-07T18:38:37.227Z,44.61
2023-02-07T18:41:23.148Z,46.16
2023-02-07T18:43:50.768Z,46.88
2023-02-07T18:46:20.172Z,48.17
2023-02-07T18:48:51.256Z,49.63
2023-02-07T18:51:19.389Z,49.83
2023-02-07T18:53:47.122Z,49.84
2023-02-07T18:56:21.234Z,49.60
2023-02-07T18:58:48.850Z,49.17
2023-02-07T19:01:20.973Z,48.68
2023-02-07T19:03:54.112Z,49.28
2023-02-07T19:06:23.637Z,50.99
2023-02-07T19:08:50.690Z,52.27
2023-02-07T19:11:17.990Z,52.85
2023-02-07T19:13:44.856Z,53.23
2023-02-07T19:16:22.087Z,53.13
2023-02-07T19:18:50.079Z,52.79
2023-02-07T19:21:23.717Z,51.75
2023-02-07T19:23:51.200Z,51.19
2023-02-07T19:26:18.152Z,53.02
2023-02-07T19:28:44.962Z,55.30
2023-02-07T19:31:18.270Z,55.25
2023-02-07T19:33:49.422Z,55.22
2023-02-07T19:36:17.984Z,54.91
2023-02-07T19:38:46.505Z,54.92
2023-02-07T19:41:13.408Z,54.94
2023-02-07T19:43:41.363Z,54.88
2023-02-07T19:46:08.341Z,55.87
2023-02-07T19:48:35.320Z,56.18
2023-02-07T19:51:08.998Z,56.32
2023-02-07T19:53:36.170Z,56.43
2023-02-07T19:56:07.209Z,56.15
2023-02-07T19:58:34.897Z,56.57
2023-02-07T20:01:02.308Z,56.44
2023-02-07T20:03:29.481Z,56.79
2023-02-07T20:06:01.001Z,57.32
2023-02-07T20:08:30.886Z,57.20
2023-02-07T20:10:58.187Z,57.76
2023-02-07T20:13:25.038Z,58.22
2023-02-07T20:15:51.869Z,57.68
2023-02-07T20:18:18.846Z,57.73
2023-02-07T20:20:48.193Z,57.58
2023-02-07T20:23:15.304Z,57.35
2023-02-07T20:25:42.248Z,56.98
2023-02-07T20:28:09.172Z,57.26
2023-02-07T20:30:36.811Z,57.51
2023-02-07T20:33:03.707Z,57.78
2023-02-07T20:35:30.651Z,57.13
2023-02-07T20:37:57.598Z,57.58
2023-02-07T20:40:24.481Z,57.16
2023-02-07T20:42:51.364Z,57.03
2023-02-07T20:45:18.227Z,56.85
2023-02-07T20:47:45.310Z,56.66
2023-02-07T20:50:12.123Z,57.01
2023-02-07T20:52:39.065Z,57.26
2023-02-07T20:55:06.730Z,56.88
2023-02-07T20:57:33.571Z,56.49
2023-02-07T21:00:00.444Z,55.98
2023-02-07T21:02:27.383Z,54.87
2023-02-07T21:04:54.171Z,54.80
2023-02-07T21:07:20.978Z,54.35
2023-02-07T21:09:47.885Z,54.16
2023-02-07T21:12:14.860Z,53.75
2023-02-07T21:14:41.758Z,53.19
2023-02-07T21:17:10.255Z,52.47
2023-02-07T21:19:38.390Z,52.32
2023-02-07T21:22:06.425Z,51.77
2023-02-07T21:24:33.697Z,51.52
2023-02-07T21:27:03.131Z,51.16
2023-02-07T21:29:30.120Z,51.45
2023-02-07T21:31:57.071Z,51.57
2023-02-07T21:34:25.498Z,51.50
2023-02-07T21:36:52.866Z,51.32
2023-02-07T21:39:20.336Z,51.64
2023-02-07T21:41:47.867Z,52.82
2023-02-07T21:44:15.876Z,53.16
2023-02-07T21:46:46.035Z,54.40
2023-02-07T21:49:16.108Z,55.01
2023-02-07T21:51:45.560Z,55.56
2023-02-07T21:54:12.467Z,55.02
2023-02-07T21:56:42.898Z,54.99
2023-02-07T21:59:16.822Z,54.83
2023-02-07T22:01:45.283Z,55.13
2023-02-07T22:04:14.227Z,54.92
2023-02-07T22:06:43.637Z,54.22
2023-02-07T22:09:18.732Z,53.94
2023-02-07T22:11:46.072Z,53.62
2023-02-07T22:14:13.984Z,53.40
2023-02-07T22:16:41.129Z,53.50
2023-02-07T22:19:12.380Z,53.22
2023-02-07T22:21:40.412Z,53.36
2023-02-07T22:24:07.532Z,53.13
2023-02-07T22:26:35.200Z,53.23
2023-02-07T22:29:04.087Z,53.11
2023-02-07T22:31:34.073Z,52.52
2023-02-07T22:34:05.335Z,52.52
2023-02-07T22:36:34.540Z,52.26
2023-02-07T22:39:03.890Z,51.83
2023-02-07T22:41:32.830Z,51.21
2023-02-07T22:44:02.797Z,50.93
2023-02-07T22:46:29.914Z,50.87
2023-02-07T22:48:57.482Z,51.09
2023-02-07T22:51:34.255Z,51.63
2023-02-07T22:54:12.713Z,51.80
2023-02-07T22:56:39.760Z,51.60
2023-02-07T22:59:07.105Z,52.11
2023-02-07T23:01:38.850Z,52.34
2023-02-07T23:04:08.627Z,52.27
2023-02-07T23:06:35.682Z,52.34
2023-02-07T23:09:05.134Z,52.28
2023-02-07T23:11:32.472Z,52.10
2023-02-07T23:13:59.362Z,52.31
2023-02-07T23:16:28.880Z,52.95
2023-02-07T23:18:58.029Z,53.00
2023-02-07T23:21:26.552Z,53.20
2023-02-07T23:23:53.963Z,53.95
2023-02-07T23:26:23.349Z,53.66
2023-02-07T23:28:51.886Z,53.31
2023-02-07T23:31:21.418Z,53.65
2023-02-07T23:33:49.401Z,53.86
2023-02-07T23:36:17.951Z,53.68
2023-02-07T23:38:46.156Z,53.64
2023-02-07T23:41:13.439Z,54.28
2023-02-07T23:43:40.276Z,53.84
2023-02-07T23:46:08.735Z,53.96
2023-02-07T23:48:38.407Z,53.97
2023-02-07T23:51:06.580Z,54.01
2023-02-07T23:53:33.877Z,53.92
2023-02-07T23:56:00.943Z,54.48
2023-02-07T23:58:28.141Z,54.63
